»·PEaware :: WAT390 KSFO-KSAN

WAT390 :: KSFO-KSAN

FLIGHT INFORMATION

Flight Status: Arrived
Operator:
Walker Air Transport
More flights by this operator :: More flights under this callsign
Pilot: Ewen S. (18928)
Aircraft: BOEING 737-200
(B732)
More flights by this aircraft type
Origin: KSFO San Francisco Intl
United States
Destination: KSAN San Diego Intl-Lindbergh
United States
More flights between these airports :: More routes between these airports
Route: OFFSH2 MCKEY LAX HUBRD1+
File this flight plan on PilotEdge
Remarks:
Altitude:
(Current/Filed)
33,000ft
Speed:
(Current/Filed)
430kts
Departed: 11-Dec-20 12:23 PM
Arrived: 11-Dec-20 01:36 PM
Distance/Time
Traveled:
387nm/1:13
Distance/Time
To Go:
Arrived

Flight Plot

Page will automatically refresh every two minutes.

Flight plan parsing failed; only flown route is shown


Map Options




Map Legend


Flown Route
Filed Route
Departure Airport
Arrival Airport
Navaid (VOR, NDB)
Fix

Horizontal Profiles

Position Reports

Time Latitude Longitude Heading Altitude Ground
Speed
11-Dec-20 12:01 37.618048 -122.384100 281 17ft 0kts
11-Dec-20 12:02 37.618048 -122.384100 281 17ft 0kts
11-Dec-20 12:03 37.618048 -122.384100 281 17ft 0kts
11-Dec-20 12:04 37.618048 -122.384100 281 17ft 0kts
11-Dec-20 12:05 37.618048 -122.384100 281 17ft 0kts
11-Dec-20 12:06 37.618048 -122.384100 281 17ft 0kts
11-Dec-20 12:07 37.618048 -122.384100 281 17ft 0kts
11-Dec-20 12:08 37.618048 -122.384100 281 17ft 0kts
11-Dec-20 12:09 37.618048 -122.384100 281 17ft 0kts
11-Dec-20 12:10 37.618048 -122.384100 281 17ft 0kts
11-Dec-20 12:11 37.618048 -122.384100 281 17ft 0kts
11-Dec-20 12:12 37.618048 -122.384100 281 17ft 0kts
11-Dec-20 12:13 37.618066 -122.383812 267 17ft 2kts
11-Dec-20 12:14 37.617908 -122.383606 33 17ft 0kts
11-Dec-20 12:15 37.617878 -122.383628 29 17ft 0kts
11-Dec-20 12:16 37.617937 -122.383592 24 17ft 2kts
11-Dec-20 12:17 37.619036 -122.382597 32 17ft 8kts
11-Dec-20 12:18 37.618544 -122.379901 146 18ft 10kts
11-Dec-20 12:19 37.615448 -122.380425 207 17ft 14kts
11-Dec-20 12:20 37.611640 -122.382927 206 17ft 16kts
11-Dec-20 12:21 37.609122 -122.383508 123 18ft 0kts
11-Dec-20 12:22 37.610390 -122.381270 28 18ft 57kts
11-Dec-20 12:23 37.649193 -122.360342 1 1670ft 206kts
11-Dec-20 12:24 37.695597 -122.395151 269 5637ft 221kts
11-Dec-20 12:25 37.650793 -122.450740 217 8830ft 251kts
11-Dec-20 12:26 37.589209 -122.499394 216 11460ft 270kts
11-Dec-20 12:27 37.517864 -122.553888 216 13306ft 314kts
11-Dec-20 12:28 37.439933 -122.611226 216 15656ft 328kts
11-Dec-20 12:29 37.352056 -122.655422 197 17790ft 353kts
11-Dec-20 12:30 37.249413 -122.653831 180 19672ft 377kts
11-Dec-20 12:31 37.142760 -122.634115 174 21395ft 391kts
11-Dec-20 12:32 37.034755 -122.601942 170 22928ft 404kts
11-Dec-20 12:33 36.925007 -122.562074 168 24288ft 414kts
11-Dec-20 12:34 36.812402 -122.517594 169 25441ft 427kts
11-Dec-20 12:35 36.694585 -122.483670 175 26567ft 436kts
11-Dec-20 12:36 36.573128 -122.461944 179 27592ft 445kts
11-Dec-20 12:37 36.448098 -122.444501 169 28517ft 461kts
11-Dec-20 12:38 36.349404 -122.340661 128 29375ft 476kts
11-Dec-20 12:39 36.262965 -122.213001 128 30210ft 483kts
11-Dec-20 12:40 36.175551 -122.084350 128 31008ft 488kts
11-Dec-20 12:41 36.089759 -121.956748 127 31699ft 493kts
11-Dec-20 12:42 36.001183 -121.825875 129 32446ft 495kts
11-Dec-20 12:43 35.911203 -121.697104 129 33183ft 497kts
11-Dec-20 12:44 35.817601 -121.566257 130 33231ft 508kts
11-Dec-20 12:45 35.723544 -121.433796 130 33230ft 513kts
11-Dec-20 12:46 35.630443 -121.298508 130 33228ft 517kts
11-Dec-20 12:47 35.538360 -121.163312 131 33230ft 518kts
11-Dec-20 12:48 35.452477 -121.021861 119 33222ft 520kts
11-Dec-20 12:49 35.384985 -120.864746 116 33214ft 521kts
11-Dec-20 12:50 35.322648 -120.706440 116 33210ft 522kts
11-Dec-20 12:51 35.255044 -120.548871 121 33210ft 522kts
11-Dec-20 12:52 35.174961 -120.400700 129 33210ft 518kts
11-Dec-20 12:53 35.080971 -120.266468 137 33209ft 513kts
11-Dec-20 12:54 34.979098 -120.143772 140 33206ft 510kts
11-Dec-20 12:55 34.877367 -120.020468 136 33200ft 510kts
11-Dec-20 12:57 34.785866 -119.885537 129 33190ft 513kts
11-Dec-20 12:58 34.712821 -119.744411 121 33182ft 515kts
11-Dec-20 12:59 34.644841 -119.588983 120 33183ft 515kts
11-Dec-20 13:00 34.572629 -119.436793 125 33183ft 513kts
11-Dec-20 13:01 34.488794 -119.299609 134 33181ft 509kts
11-Dec-20 13:02 34.394338 -119.170968 136 33182ft 506kts
11-Dec-20 13:03 34.302126 -119.041356 132 33182ft 508kts
11-Dec-20 13:04 34.218423 -118.901203 127 33179ft 511kts
11-Dec-20 13:05 34.138395 -118.759021 128 33185ft 510kts
11-Dec-20 13:06 34.052921 -118.621830 131 33027ft 500kts
11-Dec-20 13:07 33.968407 -118.488043 130 31530ft 491kts
11-Dec-20 13:08 33.885401 -118.357177 135 29717ft 475kts
11-Dec-20 13:09 33.793027 -118.247423 137 26830ft 453kts
11-Dec-20 13:10 33.706392 -118.140423 137 24297ft 429kts
11-Dec-20 13:11 33.624577 -118.038508 137 24183ft 414kts
11-Dec-20 13:12 33.543577 -117.935719 136 23461ft 421kts
11-Dec-20 13:12 33.475073 -117.847932 135 22090ft 420kts
11-Dec-20 13:14 33.382377 -117.728520 136 19745ft 401kts
11-Dec-20 13:14 33.318441 -117.646662 136 18153ft 387kts
11-Dec-20 13:16 33.232053 -117.537811 136 15866ft 373kts
11-Dec-20 13:16 33.172541 -117.463727 136 15007ft 347kts
11-Dec-20 13:18 33.080838 -117.388120 154 13382ft 316kts
11-Dec-20 13:18 33.015922 -117.351744 160 12245ft 292kts
11-Dec-20 13:19 32.940839 -117.314426 158 10438ft 288kts
11-Dec-20 13:20 32.867997 -117.273848 156 8519ft 280kts
11-Dec-20 13:21 32.812091 -117.215403 105 7019ft 268kts
11-Dec-20 13:22 32.795257 -117.130268 101 6980ft 263kts
11-Dec-20 13:23 32.779322 -117.044219 101 6522ft 265kts
11-Dec-20 13:24 32.763600 -116.958298 101 5380ft 258kts
11-Dec-20 13:25 32.748862 -116.874425 101 4959ft 247kts
11-Dec-20 13:26 32.735039 -116.799134 118 4949ft 221kts
11-Dec-20 13:27 32.693908 -116.809051 249 4946ft 179kts
11-Dec-20 13:28 32.676948 -116.862705 251 4540ft 185kts
11-Dec-20 13:29 32.670143 -116.925183 282 4058ft 199kts
11-Dec-20 13:30 32.683518 -116.985815 285 3414ft 180kts
11-Dec-20 13:31 32.696148 -117.036331 286 2658ft 148kts
11-Dec-20 13:32 32.708794 -117.087519 284 2069ft 160kts
11-Dec-20 13:34 32.721810 -117.139655 284 1273ft 135kts
11-Dec-20 13:34 32.730205 -117.175855 283 144ft 132kts
11-Dec-20 13:35 32.736192 -117.200684 284 25ft 17kts
11-Dec-20 13:36 32.735738 -117.202045 222 25ft 0kts
11-Dec-20 13:37 32.735822 -117.203924 253 25ft 15kts
11-Dec-20 13:38 32.734680 -117.204180 170 25ft 0kts
11-Dec-20 13:39 32.734680 -117.204180 170 25ft 0kts
11-Dec-20 13:40 32.734680 -117.204180 170 25ft 0kts
11-Dec-20 13:41 32.734680 -117.204180 170 25ft 0kts

Navigation Log

Ident Type
Flight plan parsing failed, navigation log unavailable